createdAt,value
2022-09-06T00:00:27.898Z,100603.13
2022-09-06T00:02:55.674Z,100595.28
2022-09-06T00:05:23.334Z,100596.75
2022-09-06T00:07:50.846Z,100590.81
2022-09-06T00:10:18.417Z,100592.50
2022-09-06T00:12:45.960Z,100598.91
2022-09-06T00:15:13.479Z,100591.56
2022-09-06T00:17:40.970Z,100597.38
2022-09-06T00:20:10.263Z,100591.91
2022-09-06T00:22:38.810Z,100588.91
2022-09-06T00:25:09.532Z,100598.53
2022-09-06T00:27:37.071Z,100592.53
2022-09-06T00:30:08.699Z,100593.66
2022-09-06T00:32:36.209Z,100598.06
2022-09-06T00:35:03.805Z,100591.78
2022-09-06T00:37:32.375Z,100590.13
2022-09-06T00:39:59.934Z,100594.75
2022-09-06T00:42:27.523Z,100598.66
2022-09-06T00:44:55.081Z,100592.59
2022-09-06T00:47:22.657Z,100592.03
2022-09-06T00:49:54.588Z,100588.75
2022-09-06T00:52:26.913Z,100599.72
2022-09-06T00:54:55.218Z,100596.97
2022-09-06T00:57:26.977Z,100597.50
2022-09-06T00:59:56.863Z,100595.09
2022-09-06T01:02:26.526Z,100598.34
2022-09-06T01:04:55.233Z,100599.44
2022-09-06T01:07:50.536Z,100603.00
2022-09-06T01:10:33.327Z,100602.44
2022-09-06T01:13:22.735Z,100599.37
2022-09-06T01:15:56.203Z,100604.59
2022-09-06T01:19:01.472Z,100596.91
2022-09-06T01:21:33.190Z,100587.28
2022-09-06T01:24:29.699Z,100596.91
2022-09-06T01:27:20.460Z,100599.63
2022-09-06T01:30:08.370Z,100605.06
2022-09-06T01:33:00.333Z,100601.44
2022-09-06T01:35:39.684Z,100585.22
2022-09-06T01:38:09.157Z,100589.81
2022-09-06T01:40:38.920Z,100595.25
2022-09-06T01:43:11.404Z,100585.63
2022-09-06T01:46:08.729Z,100584.81
2022-09-06T01:48:54.881Z,100587.84
2022-09-06T01:51:32.053Z,100584.88
2022-09-06T01:54:20.840Z,100584.12
2022-09-06T01:57:10.392Z,100586.03
2022-09-06T01:59:57.026Z,100581.94
2022-09-06T02:02:34.213Z,100577.56
2022-09-06T02:05:07.663Z,100584.22
2022-09-06T02:07:37.354Z,100577.94
2022-09-06T02:10:12.935Z,100579.03
2022-09-06T02:12:43.279Z,100585.94
2022-09-06T02:15:25.264Z,100581.25
2022-09-06T02:18:17.310Z,100582.13
2022-09-06T02:20:52.774Z,100581.03
2022-09-06T02:23:24.626Z,100576.44
2022-09-06T02:26:00.250Z,100572.06
2022-09-06T02:28:30.505Z,100571.25
2022-09-06T02:31:05.522Z,100572.34
2022-09-06T02:33:35.763Z,100574.28
2022-09-06T02:36:09.456Z,100572.94
2022-09-06T02:38:41.699Z,100575.44
2022-09-06T02:41:09.974Z,100577.41
2022-09-06T02:43:37.824Z,100573.00
2022-09-06T02:46:05.432Z,100570.28
2022-09-06T02:48:34.005Z,100573.06
2022-09-06T02:51:06.140Z,100576.37
2022-09-06T02:53:33.902Z,100579.66
2022-09-06T02:56:01.481Z,100572.53
2022-09-06T02:58:29.560Z,100572.81
2022-09-06T03:00:57.942Z,100571.19
2022-09-06T03:03:27.370Z,100571.97
2022-09-06T03:05:55.487Z,100567.59
2022-09-06T03:08:25.750Z,100580.19
2022-09-06T03:10:56.170Z,100574.19
2022-09-06T03:13:25.322Z,100576.91
2022-09-06T03:15:57.250Z,100579.69
2022-09-06T03:18:29.637Z,100578.03
2022-09-06T03:20:58.012Z,100577.22
2022-09-06T03:23:28.573Z,100565.44
2022-09-06T03:25:56.835Z,100575.31
2022-09-06T03:28:25.648Z,100571.50
2022-09-06T03:30:53.822Z,100573.41
2022-09-06T03:33:21.993Z,100569.31
2022-09-06T03:35:58.147Z,100574.50
2022-09-06T03:38:29.326Z,100570.97
2022-09-06T03:40:57.349Z,100558.91
2022-09-06T03:43:26.231Z,100567.13
2022-09-06T03:45:57.038Z,100568.50
2022-09-06T03:48:28.146Z,100569.31
2022-09-06T03:50:58.699Z,100568.22
2022-09-06T03:53:29.946Z,100570.41
2022-09-06T03:55:58.793Z,100575.87
2022-09-06T03:58:31.482Z,100577.53
2022-09-06T04:01:04.937Z,100577.00
2022-09-06T04:03:36.410Z,100579.44
2022-09-06T04:06:07.599Z,100579.72
2022-09-06T04:08:35.902Z,100571.47
2022-09-06T04:11:04.215Z,100573.66
2022-09-06T04:13:32.977Z,100576.09
2022-09-06T04:16:00.861Z,100573.63
2022-09-06T04:18:30.997Z,100572.50
2022-09-06T04:21:02.831Z,100566.50
2022-09-06T04:23:35.359Z,100568.41
2022-09-06T04:26:06.739Z,100574.97
2022-09-06T04:28:34.274Z,100570.84
2022-09-06T04:31:05.513Z,100570.59
2022-09-06T04:33:38.217Z,100579.37
2022-09-06T04:36:09.466Z,100582.94
2022-09-06T04:38:39.359Z,100581.81
2022-09-06T04:41:08.907Z,100581.81
2022-09-06T04:43:36.640Z,100588.66
2022-09-06T04:46:16.883Z,100587.00
2022-09-06T04:48:45.675Z,100584.25
2022-09-06T04:51:13.480Z,100578.47
2022-09-06T04:53:45.902Z,100573.53
2022-09-06T04:56:17.014Z,100571.59
2022-09-06T04:58:46.299Z,100576.81
2022-09-06T05:01:14.333Z,100577.34
2022-09-06T05:03:42.116Z,100572.41
2022-09-06T05:06:15.118Z,100563.59
2022-09-06T05:08:42.824Z,100565.81
2022-09-06T05:11:11.178Z,100570.75
2022-09-06T05:13:39.313Z,100581.19
2022-09-06T05:16:08.823Z,100572.44
2022-09-06T05:18:36.815Z,100577.91
2022-09-06T05:21:07.632Z,100579.56
2022-09-06T05:23:35.705Z,100580.38
2022-09-06T05:26:03.706Z,100588.06
2022-09-06T05:28:33.733Z,100573.81
2022-09-06T05:31:24.799Z,100580.38
2022-09-06T05:33:57.748Z,100576.81
2022-09-06T05:36:26.948Z,100577.91
2022-09-06T05:38:56.046Z,100580.63
2022-09-06T05:41:25.260Z,100588.84
2022-09-06T05:43:52.854Z,100582.81
2022-09-06T05:46:20.549Z,100582.50
2022-09-06T05:49:02.609Z,100588.16
2022-09-06T05:51:32.850Z,100585.34
2022-09-06T05:54:00.930Z,100584.41
2022-09-06T05:56:31.529Z,100580.53
2022-09-06T05:58:59.464Z,100580.66
2022-09-06T06:01:31.222Z,100586.09
2022-09-06T06:04:08.007Z,100589.25
2022-09-06T06:06:36.221Z,100583.34
2022-09-06T06:09:03.865Z,100589.03
2022-09-06T06:11:32.366Z,100577.88
2022-09-06T06:14:00.230Z,100579.13
2022-09-06T06:16:27.981Z,100584.19
2022-09-06T06:18:56.066Z,100584.84
2022-09-06T06:21:25.938Z,100587.84
2022-09-06T06:23:58.148Z,100585.06
2022-09-06T06:26:29.126Z,100593.97
2022-09-06T06:28:57.872Z,100586.88
2022-09-06T06:31:26.331Z,100590.47
2022-09-06T06:33:54.240Z,100597.34
2022-09-06T06:36:30.669Z,100593.03
2022-09-06T06:39:05.342Z,100593.16
2022-09-06T06:41:33.876Z,100587.34
2022-09-06T06:44:03.425Z,100592.00
2022-09-06T06:46:35.826Z,100586.81
2022-09-06T06:49:03.450Z,100586.41
2022-09-06T06:51:33.437Z,100588.44
2022-09-06T06:54:01.019Z,100603.31
2022-09-06T06:56:49.230Z,100602.97
2022-09-06T06:59:17.394Z,100597.59
2022-09-06T07:01:45.189Z,100599.13
2022-09-06T07:04:14.248Z,100605.00
2022-09-06T07:12:24.876Z,100598.12
2022-09-06T07:14:53.687Z,100604.13
2022-09-06T07:17:23.639Z,100604.22
2022-09-06T07:22:40.823Z,100598.34
2022-09-06T07:25:10.447Z,100612.41
2022-09-06T07:30:14.227Z,100606.13
2022-09-06T07:32:41.861Z,100617.06
2022-09-06T07:35:09.905Z,100613.59
2022-09-06T07:37:38.474Z,100606.63
2022-09-06T07:40:06.283Z,100616.56
2022-09-06T07:42:36.226Z,100610.69
2022-09-06T07:45:05.916Z,100612.94
2022-09-06T07:53:14.069Z,100613.81
2022-09-06T07:55:45.183Z,100610.91
2022-09-06T07:58:15.273Z,100616.16
2022-09-06T08:00:43.021Z,100610.97
2022-09-06T08:03:10.943Z,100613.53
2022-09-06T08:11:14.905Z,100609.66
2022-09-06T08:13:44.298Z,100612.50
2022-09-06T08:16:13.978Z,100618.06
2022-09-06T08:18:44.683Z,100613.91
2022-09-06T08:21:16.273Z,100607.88
2022-09-06T08:23:52.600Z,100598.53
2022-09-06T08:26:22.563Z,100600.06
2022-09-06T08:28:57.478Z,100597.06
2022-09-06T08:31:25.717Z,100591.78
2022-09-06T08:33:53.771Z,100595.03
2022-09-06T08:36:22.345Z,100587.59
2022-09-06T08:38:50.298Z,100584.28
2022-09-06T08:41:17.835Z,100594.03
2022-09-06T08:46:50.105Z,100590.78
2022-09-06T08:49:19.166Z,100594.59
2022-09-06T08:51:49.836Z,100588.25
2022-09-06T08:54:59.544Z,100580.16
2022-09-06T08:57:45.889Z,100586.16
2022-09-06T09:00:15.078Z,100583.38
2022-09-06T09:02:51.781Z,100585.06
2022-09-06T09:05:28.108Z,100578.81
2022-09-06T09:07:58.702Z,100576.06
2022-09-06T09:10:32.584Z,100571.75
2022-09-06T09:13:03.617Z,100579.31
2022-09-06T09:15:36.006Z,100576.06
2022-09-06T09:18:05.893Z,100574.34
2022-09-06T09:20:35.815Z,100569.41
2022-09-06T09:23:03.441Z,100571.94
2022-09-06T09:25:35.706Z,100569.56
2022-09-06T09:28:18.418Z,100559.56
2022-09-06T09:30:49.784Z,100553.03
2022-09-06T09:33:39.050Z,100547.75
2022-09-06T09:36:13.913Z,100549.53
2022-09-06T09:38:45.069Z,100547.53
2022-09-06T09:41:30.713Z,100543.66
2022-09-06T09:44:04.768Z,100534.47
2022-09-06T09:46:42.067Z,100540.38
2022-09-06T09:49:25.137Z,100531.53
2022-09-06T09:52:14.097Z,100528.63
2022-09-06T09:54:47.043Z,100524.28
2022-09-06T09:57:19.668Z,100518.66
2022-09-06T10:00:13.426Z,100532.06
2022-09-06T10:02:43.148Z,100521.44
2022-09-06T10:05:21.205Z,100513.09
2022-09-06T10:07:54.809Z,100508.16
2022-09-06T10:10:25.070Z,100514.75
2022-09-06T10:13:21.926Z,100504.87
2022-09-06T10:15:51.920Z,100502.34
2022-09-06T10:18:40.579Z,100494.97
2022-09-06T10:21:18.678Z,100492.50
2022-09-06T10:26:54.910Z,100494.06
2022-09-06T10:29:40.843Z,100488.59
2022-09-06T10:32:43.527Z,100487.81
2022-09-06T10:35:11.053Z,100483.81
2022-09-06T10:37:53.778Z,100473.50
2022-09-06T10:40:59.649Z,100476.25
2022-09-06T10:43:36.581Z,100471.53
2022-09-06T10:46:12.489Z,100466.06
2022-09-06T10:48:42.793Z,100468.09
2022-09-06T10:51:42.235Z,100455.72
2022-09-06T10:54:11.026Z,100452.62
2022-09-06T10:56:47.641Z,100459.62
2022-09-06T10:59:42.356Z,100455.97
2022-09-06T11:02:39.150Z,100456.78
2022-09-06T11:11:05.639Z,100463.25
2022-09-06T11:13:33.684Z,100454.78
2022-09-06T11:16:13.360Z,100445.50
2022-09-06T11:18:40.921Z,100445.16
2022-09-06T11:21:08.408Z,100443.91
2022-09-06T11:23:48.226Z,100442.19
2022-09-06T11:26:27.963Z,100436.28
2022-09-06T11:29:01.159Z,100430.22
2022-09-06T11:34:35.985Z,100438.72
2022-09-06T11:37:09.726Z,100422.75
2022-09-06T11:42:45.138Z,100421.34
2022-09-06T11:45:12.676Z,100415.53
2022-09-06T11:47:53.428Z,100409.78
2022-09-06T11:50:24.429Z,100405.44
2022-09-06T11:53:20.478Z,100403.19
2022-09-06T11:56:10.800Z,100399.31
2022-09-06T11:58:41.071Z,100392.16
2022-09-06T12:01:16.467Z,100397.78
2022-09-06T12:04:06.678Z,100394.69
2022-09-06T12:06:41.137Z,100392.19
2022-09-06T12:09:30.680Z,100382.31
2022-09-06T12:11:59.649Z,100380.06
2022-09-06T12:14:46.088Z,100385.25
2022-09-06T12:17:14.909Z,100377.25
2022-09-06T12:20:17.639Z,100371.56
2022-09-06T12:22:48.214Z,100375.97
2022-09-06T12:25:37.449Z,100369.09
2022-09-06T12:28:13.470Z,100357.97
2022-09-06T12:30:44.701Z,100350.94
2022-09-06T12:33:23.136Z,100343.44
2022-09-06T12:35:58.481Z,100347.19
2022-09-06T12:38:30.933Z,100336.25
2022-09-06T12:41:01.151Z,100338.34
2022-09-06T12:43:36.079Z,100338.31
2022-09-06T12:46:07.776Z,100325.19
2022-09-06T12:48:41.251Z,100324.75
2022-09-06T12:51:21.571Z,100317.16
2022-09-06T12:54:00.851Z,100326.00
2022-09-06T12:56:30.495Z,100325.56
2022-09-06T12:59:25.462Z,100318.19
2022-09-06T13:02:05.702Z,100307.09
2022-09-06T13:04:48.691Z,100308.16
2022-09-06T13:07:20.272Z,100303.19
2022-09-06T13:09:54.310Z,100294.47
2022-09-06T13:12:34.187Z,100288.31
2022-09-06T13:15:11.560Z,100292.16
2022-09-06T13:17:39.381Z,100280.13
2022-09-06T13:20:25.812Z,100283.69
2022-09-06T13:23:09.593Z,100285.56
2022-09-06T13:25:50.557Z,100275.50
2022-09-06T13:28:30.108Z,100279.53
2022-09-06T13:31:18.955Z,100268.97
2022-09-06T13:33:57.997Z,100253.87
2022-09-06T13:36:30.642Z,100258.34
2022-09-06T13:38:59.930Z,100261.47
2022-09-06T13:41:27.418Z,100263.59
2022-09-06T13:44:18.036Z,100263.16
2022-09-06T13:46:48.387Z,100268.69
2022-09-06T13:49:18.311Z,100248.75
2022-09-06T13:51:45.846Z,100252.72
2022-09-06T13:54:15.543Z,100251.25
2022-09-06T13:56:44.929Z,100252.53
2022-09-06T13:59:13.334Z,100247.13
2022-09-06T14:01:44.071Z,100247.56
2022-09-06T14:04:19.651Z,100240.28
2022-09-06T14:06:50.166Z,100248.00
2022-09-06T14:09:17.740Z,100237.63
2022-09-06T14:11:48.150Z,100235.44
2022-09-06T14:14:17.736Z,100236.94
2022-09-06T14:16:47.607Z,100226.97
2022-09-06T14:19:15.826Z,100230.00
2022-09-06T14:25:24.671Z,100228.44
2022-09-06T14:27:52.432Z,100225.94
2022-09-06T14:30:20.156Z,100232.03
2022-09-06T14:32:49.763Z,100225.41
2022-09-06T14:35:19.774Z,100224.38
2022-09-06T14:43:50.885Z,100220.13
2022-09-06T14:46:20.057Z,100220.94
2022-09-06T14:48:47.909Z,100213.75
2022-09-06T14:51:17.841Z,100213.28
2022-09-06T14:53:46.628Z,100217.94
2022-09-06T14:56:14.526Z,100217.81
2022-09-06T14:58:44.892Z,100214.34
2022-09-06T15:01:13.966Z,100217.84
2022-09-06T15:03:43.584Z,100227.47
2022-09-06T15:06:12.159Z,100225.50
2022-09-06T15:08:42.309Z,100222.12
2022-09-06T15:11:11.152Z,100220.75
2022-09-06T15:13:42.005Z,100233.00
2022-09-06T15:16:12.567Z,100232.75
2022-09-06T15:18:40.179Z,100238.28
2022-09-06T15:21:15.271Z,100244.19
2022-09-06T15:23:43.973Z,100249.44
2022-09-06T15:26:15.919Z,100255.88
2022-09-06T15:28:44.743Z,100259.28
2022-09-06T15:31:14.027Z,100257.94
2022-09-06T15:33:45.374Z,100252.16
2022-09-06T15:36:16.330Z,100254.50
2022-09-06T15:38:47.471Z,100247.03
2022-09-06T15:41:17.581Z,100245.25
2022-09-06T15:43:47.961Z,100233.06
2022-09-06T15:46:17.642Z,100234.53
2022-09-06T15:48:50.458Z,100229.84
2022-09-06T15:51:21.579Z,100226.63
2022-09-06T15:53:49.160Z,100226.47
2022-09-06T15:56:18.631Z,100237.25
2022-09-06T15:58:46.733Z,100238.62
2022-09-06T16:01:17.297Z,100228.06
2022-09-06T16:03:47.521Z,100235.88
2022-09-06T16:06:28.387Z,100233.25
2022-09-06T16:09:09.558Z,100243.38
2022-09-06T16:11:38.079Z,100247.44
2022-09-06T16:14:07.231Z,100251.84
2022-09-06T16:16:35.993Z,100253.47
2022-09-06T16:19:04.403Z,100251.53
2022-09-06T16:21:34.459Z,100248.41
2022-09-06T16:24:05.163Z,100254.44
2022-09-06T16:26:36.790Z,100264.37
2022-09-06T16:29:09.228Z,100273.97
2022-09-06T16:31:40.366Z,100270.06
2022-09-06T16:34:09.935Z,100277.22
2022-09-06T16:36:40.202Z,100263.91
2022-09-06T16:39:10.694Z,100260.00
2022-09-06T16:41:44.163Z,100247.59
2022-09-06T16:44:17.426Z,100251.19
2022-09-06T16:46:46.657Z,100256.81
2022-09-06T16:49:17.852Z,100263.25
2022-09-06T16:51:46.299Z,100250.87
2022-09-06T16:54:15.449Z,100250.69
2022-09-06T16:56:43.536Z,100250.69
2022-09-06T16:59:12.744Z,100236.50
2022-09-06T17:01:42.042Z,100236.84
2022-09-06T17:04:10.626Z,100244.13
2022-09-06T17:06:44.526Z,100243.81
2022-09-06T17:09:14.544Z,100247.72
2022-09-06T17:11:42.470Z,100255.34
2022-09-06T17:14:13.441Z,100255.66
2022-09-06T17:16:58.590Z,100253.69
2022-09-06T17:19:29.760Z,100257.44
2022-09-06T17:21:57.570Z,100261.50
2022-09-06T17:24:26.315Z,100261.31
2022-09-06T17:26:54.446Z,100280.66
2022-09-06T17:29:22.566Z,100276.75
2022-09-06T17:31:53.589Z,100282.59
2022-09-06T17:34:21.311Z,100295.06
2022-09-06T17:36:50.986Z,100296.53
2022-09-06T17:39:21.043Z,100296.16
2022-09-06T17:41:51.353Z,100300.34
2022-09-06T17:44:23.527Z,100298.84
2022-09-06T17:49:42.740Z,100285.78
2022-09-06T17:52:12.268Z,100288.00
2022-09-06T17:54:39.837Z,100289.44
2022-09-06T17:57:07.390Z,100283.44
2022-09-06T17:59:39.816Z,100280.31
2022-09-06T18:02:09.571Z,100287.19
2022-09-06T18:04:37.266Z,100271.06
2022-09-06T18:07:04.937Z,100286.94
2022-09-06T18:09:32.538Z,100283.19
2022-09-06T18:12:00.103Z,100277.37
2022-09-06T18:14:28.685Z,100275.66
2022-09-06T18:16:58.958Z,100280.97
2022-09-06T18:19:27.959Z,100280.38
2022-09-06T18:21:57.527Z,100284.87
2022-09-06T18:24:27.710Z,100278.34
2022-09-06T18:26:55.750Z,100280.41
2022-09-06T18:29:23.743Z,100285.94
2022-09-06T18:31:57.346Z,100295.00
2022-09-06T18:34:25.065Z,100292.75
2022-09-06T18:36:52.885Z,100292.62
2022-09-06T18:39:20.769Z,100292.53
2022-09-06T18:42:07.091Z,100299.25
2022-09-06T18:44:35.615Z,100298.34
2022-09-06T18:47:05.736Z,100294.44
2022-09-06T18:49:37.031Z,100299.53
2022-09-06T18:52:07.227Z,100305.28
2022-09-06T18:54:35.836Z,100299.75
2022-09-06T18:57:03.494Z,100304.34
2022-09-06T18:59:31.098Z,100298.00
2022-09-06T19:01:58.847Z,100291.34
2022-09-06T19:04:28.623Z,100290.53
2022-09-06T19:06:58.316Z,100285.47
2022-09-06T19:09:26.002Z,100299.44
2022-09-06T19:11:53.798Z,100299.53
2022-09-06T19:14:21.934Z,100299.34
2022-09-06T19:16:50.807Z,100292.00
2022-09-06T19:19:18.541Z,100299.56
2022-09-06T19:21:47.102Z,100303.88
2022-09-06T19:24:16.967Z,100298.06
2022-09-06T19:26:45.499Z,100294.91
2022-09-06T19:29:18.229Z,100296.56
2022-09-06T19:31:47.127Z,100296.22
2022-09-06T19:34:16.403Z,100296.25
2022-09-06T19:36:45.639Z,100295.22
2022-09-06T19:39:15.961Z,100294.84
2022-09-06T19:41:47.649Z,100295.16
2022-09-06T19:44:17.362Z,100293.41
2022-09-06T19:46:46.956Z,100286.97
2022-09-06T19:49:20.189Z,100288.47
2022-09-06T19:51:51.313Z,100282.56
2022-09-06T19:54:19.436Z,100276.12
2022-09-06T19:56:47.536Z,100276.19
2022-09-06T19:59:17.146Z,100276.28
2022-09-06T20:01:46.504Z,100279.62
2022-09-06T20:04:15.694Z,100278.63
2022-09-06T20:06:46.315Z,100276.75
2022-09-06T20:09:15.835Z,100271.31
2022-09-06T20:11:43.727Z,100274.97
2022-09-06T20:14:13.122Z,100262.94
2022-09-06T20:16:42.430Z,100266.81
2022-09-06T20:19:11.959Z,100263.00
2022-09-06T20:21:39.698Z,100261.37
2022-09-06T20:24:07.562Z,100259.22
2022-09-06T20:26:37.765Z,100266.66
2022-09-06T20:29:06.548Z,100277.06
2022-09-06T20:31:36.037Z,100279.75
2022-09-06T20:34:05.485Z,100273.94
2022-09-06T20:36:33.329Z,100277.22
2022-09-06T20:39:02.031Z,100272.22
2022-09-06T20:41:32.190Z,100276.41
2022-09-06T20:44:00.789Z,100269.25
2022-09-06T20:46:30.718Z,100265.19
2022-09-06T20:49:03.605Z,100267.94
2022-09-06T20:51:34.083Z,100266.25
2022-09-06T20:54:02.767Z,100271.19
2022-09-06T20:56:35.614Z,100276.69
2022-09-06T20:59:06.486Z,100278.09
2022-09-06T21:01:38.597Z,100270.91
2022-09-06T21:04:07.701Z,100275.88
2022-09-06T21:06:36.990Z,100267.09
2022-09-06T21:09:10.995Z,100269.56
2022-09-06T21:11:41.782Z,100267.31
2022-09-06T21:14:10.418Z,100275.78
2022-09-06T21:16:39.424Z,100270.50
2022-09-06T21:19:09.337Z,100267.41
2022-09-06T21:21:37.175Z,100255.69
2022-09-06T21:24:07.282Z,100257.75
2022-09-06T21:26:35.482Z,100269.25
2022-09-06T21:29:03.644Z,100267.87
2022-09-06T21:31:33.053Z,100259.91
2022-09-06T21:34:05.315Z,100262.66
2022-09-06T21:36:35.937Z,100261.00
2022-09-06T21:39:09.538Z,100260.50
2022-09-06T21:41:41.471Z,100257.75
2022-09-06T21:44:09.542Z,100247.03
2022-09-06T21:46:39.195Z,100252.84
2022-09-06T21:49:10.192Z,100258.88
2022-09-06T21:51:38.644Z,100260.50
2022-09-06T21:54:06.995Z,100248.97
2022-09-06T21:56:38.739Z,100249.59
2022-09-06T21:59:07.247Z,100250.41
2022-09-06T22:01:36.553Z,100249.06
2022-09-06T22:04:07.155Z,100242.75
2022-09-06T22:06:35.994Z,100248.03
2022-09-06T22:09:07.692Z,100247.84
2022-09-06T22:11:36.005Z,100251.78
2022-09-06T22:14:06.624Z,100245.53
2022-09-06T22:16:38.318Z,100254.69
2022-09-06T22:19:09.948Z,100255.25
2022-09-06T22:21:40.330Z,100250.16
2022-09-06T22:24:11.100Z,100243.63
2022-09-06T22:26:40.937Z,100243.16
2022-09-06T22:29:10.743Z,100244.88
2022-09-06T22:31:41.095Z,100246.91
2022-09-06T22:34:09.622Z,100251.88
2022-09-06T22:36:37.393Z,100251.06
2022-09-06T22:39:05.652Z,100250.53
2022-09-06T22:41:34.140Z,100252.25
2022-09-06T22:44:03.023Z,100249.81
2022-09-06T22:46:31.294Z,100245.69
2022-09-06T22:48:59.085Z,100249.56
2022-09-06T22:51:29.290Z,100244.66
2022-09-06T22:53:59.038Z,100242.81
2022-09-06T22:56:27.680Z,100240.94
2022-09-06T22:59:00.611Z,100240.22
2022-09-06T23:01:28.805Z,100235.91
2022-09-06T23:03:56.604Z,100240.31
2022-09-06T23:06:24.672Z,100234.63
2022-09-06T23:08:52.481Z,100239.59
2022-09-06T23:11:22.680Z,100233.56
2022-09-06T23:13:56.693Z,100228.38
2022-09-06T23:16:26.554Z,100229.78
2022-09-06T23:18:55.165Z,100232.31
2022-09-06T23:21:26.791Z,100228.75
2022-09-06T23:23:59.636Z,100229.34
2022-09-06T23:26:30.747Z,100229.94
2022-09-06T23:29:00.970Z,100232.94
2022-09-06T23:31:31.670Z,100234.31
2022-09-06T23:34:00.898Z,100237.13
2022-09-06T23:36:29.428Z,100243.72
2022-09-06T23:38:57.596Z,100231.88
2022-09-06T23:41:27.811Z,100224.44
2022-09-06T23:43:57.677Z,100226.06
2022-09-06T23:46:28.236Z,100225.84
2022-09-06T23:48:55.873Z,100227.56
2022-09-06T23:51:24.956Z,100222.44
2022-09-06T23:53:52.467Z,100221.38
2022-09-06T23:56:21.125Z,100216.47
2022-09-06T23:58:51.124Z,100223.06
